Time;durP1;ratioP1;P1;durP2;ratioP2;P2;SDS_P1;SDS_P2;PMS_P1;PMS_P2;Temp;Humidity;BMP_temperature;BMP_pressure;BME280_temperature;BME280_humidity;BME280_pressure;Samples;Min_cycle;Max_cycle;Signal;HPM_P1;HPM_P2
2023/12/28 00:01:39;;;;;;;1.85;1.45;;;7.80;97.50;;;;;;4990623;28;20233;-79
2023/12/28 00:04:05;;;;;;;1.58;1.48;;;7.70;97.50;;;;;;4991334;28;20413;-79
2023/12/28 00:06:32;;;;;;;2.05;1.73;;;7.80;97.30;;;;;;4991237;28;20214;-79
2023/12/28 00:09:00;;;;;;;1.30;1.20;;;7.80;97.40;;;;;;4992086;28;20211;-80
2023/12/28 00:11:27;;;;;;;1.42;1.33;;;7.80;97.40;;;;;;4992683;28;20301;-80
2023/12/28 00:13:55;;;;;;;5.30;1.40;;;7.70;97.40;;;;;;4993802;28;20596;-80
2023/12/28 04:33:31;;;;;;;1.48;1.38;;;7.80;98.60;;;;;;4987322;28;20277;-78
2023/12/28 04:35:57;;;;;;;1.73;1.20;;;7.90;98.60;;;;;;4986727;28;20239;-79
2023/12/28 04:38:24;;;;;;;1.98;1.60;;;7.90;98.60;;;;;;4980319;28;20215;-79
2023/12/28 04:40:51;;;;;;;7.15;1.42;;;7.90;98.60;;;;;;4983640;28;20230;-78
2023/12/28 04:43:18;;;;;;;1.95;1.75;;;8.00;98.40;;;;;;4995559;28;20582;-77
2023/12/28 04:45:45;;;;;;;1.50;1.27;;;8.00;98.60;;;;;;4989629;28;20562;-78
2023/12/28 04:48:11;;;;;;;1.60;1.50;;;8.00;98.50;;;;;;4988796;28;20653;-79
2023/12/28 04:50:40;;;;;;;1.33;1.20;;;8.00;98.60;;;;;;4993386;28;20313;-79
2023/12/28 04:53:06;;;;;;;1.50;1.13;;;8.10;98.40;;;;;;4993312;28;20235;-78
2023/12/28 04:55:33;;;;;;;2.70;1.52;;;8.10;98.60;;;;;;4993775;28;20696;-79
2023/12/28 04:58:00;;;;;;;1.70;1.60;;;8.10;98.40;;;;;;4988827;28;20212;-78
2023/12/28 05:00:26;;;;;;;2.95;1.90;;;8.20;98.60;;;;;;4993174;28;20641;-79
2023/12/28 05:02:53;;;;;;;1.42;1.33;;;8.10;98.50;;;;;;4988105;28;20213;-79
2023/12/28 05:05:20;;;;;;;1.48;1.10;;;8.10;98.60;;;;;;4985330;28;20545;-79
2023/12/28 05:07:48;;;;;;;1.58;1.38;;;8.10;98.60;;;;;;4985432;28;20213;-79
2023/12/28 05:10:15;;;;;;;2.40;1.33;;;8.10;98.60;;;;;;4986167;28;20207;-78
2023/12/28 05:12:42;;;;;;;1.85;1.20;;;8.20;98.60;;;;;;4995598;28;20228;-78
2023/12/28 05:15:09;;;;;;;2.65;1.58;;;8.20;98.60;;;;;;4991457;28;20277;-78
2023/12/28 05:17:36;;;;;;;9.20;1.23;;;8.30;98.70;;;;;;5001465;28;20219;-78
2023/12/28 05:20:03;;;;;;;1.58;1.27;;;8.30;98.90;;;;;;4990812;28;20214;-78
2023/12/28 05:22:29;;;;;;;1.20;1.10;;;8.30;99.00;;;;;;5001712;28;20229;-78
2023/12/28 05:24:57;;;;;;;2.65;1.20;;;8.30;99.00;;;;;;5006042;28;20212;-78
2023/12/28 05:27:24;;;;;;;1.42;1.33;;;8.40;99.10;;;;;;5001574;28;20218;-78
2023/12/28 05:29:51;;;;;;;1.40;1.13;;;8.40;99.10;;;;;;5001906;28;20209;-78
2023/12/28 05:32:17;;;;;;;2.05;1.40;;;8.40;99.10;;;;;;4990682;28;20233;-78
2023/12/28 05:34:44;;;;;;;1.10;1.00;;;8.50;98.90;;;;;;4982551;28;20230;-78
2023/12/28 05:37:11;;;;;;;2.55;1.25;;;8.60;99.00;;;;;;4984191;28;20211;-78
2023/12/28 05:39:38;;;;;;;1.55;1.30;;;8.60;99.00;;;;;;4989347;28;20220;-78
2023/12/28 05:42:06;;;;;;;1.90;1.42;;;8.70;98.90;;;;;;4980385;28;20241;-78
2023/12/28 05:44:33;;;;;;;1.40;1.10;;;8.80;99.20;;;;;;4977593;28;20601;-79
2023/12/28 05:46:59;;;;;;;0.90;0.80;;;8.80;99.00;;;;;;4977373;28;20690;-79
2023/12/28 05:49:28;;;;;;;1.25;1.00;;;8.80;99.10;;;;;;4977305;28;20217;-78
2023/12/28 05:51:55;;;;;;;1.65;1.30;;;8.70;99.10;;;;;;4976822;28;20290;-78
2023/12/28 05:54:21;;;;;;;1.52;1.30;;;8.70;99.30;;;;;;4977456;28;20762;-78
2023/12/28 05:56:48;;;;;;;2.25;1.77;;;8.70;99.30;;;;;;4973207;28;20306;-79
2023/12/28 05:59:17;;;;;;;1.73;1.30;;;8.70;99.50;;;;;;4977054;28;20214;-78
2023/12/28 06:01:44;;;;;;;1.90;1.05;;;8.60;99.60;;;;;;4977256;28;20661;-78
2023/12/28 06:04:11;;;;;;;2.25;1.58;;;8.70;99.70;;;;;;4977483;28;20228;-78
2023/12/28 06:06:37;;;;;;;1.27;1.00;;;8.70;99.90;;;;;;4977813;28;20217;-78
2023/12/28 06:09:04;;;;;;;2.85;1.17;;;8.70;99.90;;;;;;4973460;28;20215;-78
2023/12/28 06:11:31;;;;;;;1.30;1.13;;;8.70;99.90;;;;;;4977383;28;20233;-76
2023/12/28 06:13:58;;;;;;;1.98;1.40;;;8.60;99.90;;;;;;4974794;28;20593;-76
2023/12/28 06:16:26;;;;;;;2.55;1.00;;;8.60;99.90;;;;;;4974946;28;20221;-76
2023/12/28 06:18:53;;;;;;;1.23;1.10;;;8.60;99.90;;;;;;4976317;28;20594;-79
2023/12/28 06:21:19;;;;;;;1.77;1.67;;;8.60;99.90;;;;;;4973299;28;20230;-79
2023/12/28 06:23:46;;;;;;;1.20;1.10;;;8.70;99.90;;;;;;4976704;28;20304;-78
2023/12/28 06:26:13;;;;;;;2.13;1.30;;;8.70;99.90;;;;;;4976704;28;20381;-79
2023/12/28 06:28:39;;;;;;;2.45;1.55;;;8.70;99.90;;;;;;4976807;28;20208;-79
2023/12/28 06:31:06;;;;;;;1.40;1.15;;;8.70;99.90;;;;;;4976799;28;20733;-78
2023/12/28 06:33:34;;;;;;;1.15;1.05;;;8.70;99.90;;;;;;4995816;28;20213;-78
2023/12/28 06:36:06;;;;;;;1.65;1.50;;;8.70;99.90;;;;;;5001512;28;20221;-78
2023/12/28 06:38:33;;;;;;;1.25;1.15;;;8.70;99.90;;;;;;4996571;28;20209;-78
2023/12/28 06:40:59;;;;;;;1.77;1.40;;;8.80;99.90;;;;;;4995476;28;20235;-79
2023/12/28 06:43:26;;;;;;;1.15;1.05;;;8.80;99.90;;;;;;4996246;28;20710;-78
2023/12/28 06:45:53;;;;;;;1.30;1.17;;;8.80;99.90;;;;;;4996401;28;20205;-78
2023/12/28 06:48:19;;;;;;;1.00;0.90;;;8.80;99.90;;;;;;4996258;28;20213;-79
2023/12/28 06:50:47;;;;;;;1.77;1.30;;;8.90;99.90;;;;;;4989694;28;20238;-78
2023/12/28 06:53:14;;;;;;;1.00;0.90;;;8.90;99.90;;;;;;4995319;28;20226;-78
2023/12/28 06:55:41;;;;;;;2.00;1.10;;;8.90;99.90;;;;;;4996564;28;20226;-78
2023/12/28 06:58:08;;;;;;;1.55;1.40;;;9.00;99.90;;;;;;4989648;28;20220;-78
2023/12/28 07:00:34;;;;;;;1.85;1.42;;;9.00;99.90;;;;;;4996840;28;20978;-78
2023/12/28 07:03:01;;;;;;;1.65;1.15;;;9.00;99.90;;;;;;4996868;28;20216;-78
2023/12/28 07:05:28;;;;;;;1.80;1.33;;;9.00;99.90;;;;;;4994712;28;20209;-78
2023/12/28 07:07:56;;;;;;;4.72;1.55;;;9.10;99.90;;;;;;4994810;28;20510;-78
2023/12/28 07:10:23;;;;;;;1.50;1.40;;;9.10;99.90;;;;;;4995675;28;20219;-78
2023/12/28 07:12:49;;;;;;;1.33;1.10;;;9.10;99.90;;;;;;4997098;28;20218;-78
2023/12/28 07:15:16;;;;;;;1.50;1.40;;;9.10;99.90;;;;;;4994259;28;20222;-78
2023/12/28 07:17:43;;;;;;;1.30;1.20;;;9.20;99.90;;;;;;4992917;28;20683;-78
2023/12/28 07:20:10;;;;;;;1.30;1.20;;;9.20;99.90;;;;;;4995832;28;20216;-78
2023/12/28 07:22:37;;;;;;;2.95;1.55;;;9.20;99.90;;;;;;4993522;28;20233;-77
2023/12/28 07:25:06;;;;;;;1.10;0.98;;;9.20;99.90;;;;;;4995164;28;20214;-77
2023/12/28 07:27:33;;;;;;;1.70;1.60;;;9.20;99.90;;;;;;4994828;28;20217;-78
2023/12/28 07:30:01;;;;;;;1.90;1.20;;;9.20;99.90;;;;;;4995023;28;20576;-77
2023/12/28 07:32:29;;;;;;;1.60;1.50;;;9.20;99.90;;;;;;4989168;28;20237;-78
2023/12/28 07:34:56;;;;;;;3.10;1.27;;;9.30;99.90;;;;;;4992134;28;20237;-78
2023/12/28 07:37:22;;;;;;;1.42;1.33;;;9.20;99.90;;;;;;4994274;28;20233;-77
2023/12/28 07:39:49;;;;;;;1.83;1.13;;;9.20;99.90;;;;;;4990969;28;20233;-77
2023/12/28 07:42:17;;;;;;;2.72;1.40;;;9.20;99.90;;;;;;4989090;28;20223;-77
2023/12/28 07:44:44;;;;;;;1.05;0.95;;;9.20;99.90;;;;;;4993402;28;20195;-77
2023/12/28 07:47:11;;;;;;;2.00;1.25;;;9.20;99.90;;;;;;4993511;28;20214;-77
2023/12/28 07:49:38;;;;;;;1.55;1.40;;;9.20;99.90;;;;;;4993719;28;20206;-77
2023/12/28 07:52:05;;;;;;;1.30;1.20;;;9.20;99.90;;;;;;4992956;28;20239;-77
2023/12/28 07:54:32;;;;;;;1.83;1.40;;;9.10;99.90;;;;;;4988939;28;20690;-77
2023/12/28 07:57:00;;;;;;;1.30;1.20;;;9.00;99.90;;;;;;4993105;28;20214;-77
2023/12/28 07:59:28;;;;;;;2.47;1.50;;;9.00;99.90;;;;;;4990897;28;20238;-75
2023/12/28 08:01:55;;;;;;;1.55;1.40;;;8.90;99.90;;;;;;4990585;28;20234;-78
2023/12/28 08:04:22;;;;;;;1.80;1.60;;;8.90;99.90;;;;;;4993382;28;20207;-77
2023/12/28 08:06:49;;;;;;;1.55;1.45;;;8.90;99.90;;;;;;4987813;28;20217;-75
2023/12/28 08:09:15;;;;;;;1.52;1.30;;;8.90;99.90;;;;;;4989722;28;20214;-75
2023/12/28 08:11:42;;;;;;;1.30;1.10;;;8.90;99.90;;;;;;4987242;28;20607;-75
2023/12/28 08:14:09;;;;;;;1.80;1.30;;;8.80;99.90;;;;;;4991878;28;20263;-75
2023/12/28 08:16:37;;;;;;;1.60;1.50;;;8.80;99.90;;;;;;4990844;28;20334;-77
2023/12/28 08:19:04;;;;;;;1.25;1.15;;;8.70;99.90;;;;;;4993627;28;20202;-77
2023/12/28 08:21:31;;;;;;;4.10;1.75;;;8.60;99.90;;;;;;4992991;28;20222;-77
2023/12/28 08:23:58;;;;;;;3.58;1.65;;;8.60;99.90;;;;;;4991203;28;20205;-77
2023/12/28 08:26:24;;;;;;;1.85;1.15;;;8.60;99.90;;;;;;4990306;28;20211;-77
2023/12/28 08:28:51;;;;;;;1.40;1.30;;;8.70;99.90;;;;;;4990425;28;20224;-77
2023/12/28 08:31:19;;;;;;;1.23;1.00;;;8.70;99.90;;;;;;4992760;28;20233;-78
2023/12/28 08:33:48;;;;;;;2.22;1.50;;;8.70;99.90;;;;;;4993400;28;20467;-77
2023/12/28 08:36:17;;;;;;;1.60;1.30;;;8.70;99.90;;;;;;4990825;28;20218;-74
2023/12/28 08:38:44;;;;;;;1.70;1.50;;;8.80;99.90;;;;;;4989630;28;20207;-74
2023/12/28 08:41:19;;;;;;;1.38;1.27;;;8.80;99.90;;;;;;4989778;28;20231;-76
2023/12/28 08:43:46;;;;;;;1.10;1.00;;;8.90;99.90;;;;;;4990145;28;20594;-77
2023/12/28 08:46:12;;;;;;;1.20;1.10;;;9.00;99.90;;;;;;4992793;28;20210;-80
2023/12/28 08:48:40;;;;;;;1.75;1.25;;;9.10;99.90;;;;;;4994111;28;20656;-78
2023/12/28 08:51:10;;;;;;;1.75;1.65;;;9.20;99.90;;;;;;4989106;28;20226;-76
2023/12/28 08:53:36;;;;;;;2.72;1.80;;;9.30;99.90;;;;;;4990920;28;20206;-79
2023/12/28 08:56:03;;;;;;;1.45;1.10;;;9.40;99.90;;;;;;4993264;28;20231;-78
2023/12/28 08:58:30;;;;;;;1.50;1.40;;;9.50;99.90;;;;;;4992085;28;20218;-83
2023/12/28 09:01:04;;;;;;;1.23;1.13;;;9.60;99.90;;;;;;4993760;28;20227;-83
2023/12/28 09:03:42;;;;;;;1.15;1.05;;;9.70;99.90;;;;;;4996118;28;20211;-83
2023/12/28 09:06:11;;;;;;;1.67;1.58;;;9.80;99.90;;;;;;4994984;28;20199;-82
2023/12/28 09:09:05;;;;;;;1.75;1.45;;;9.80;99.90;;;;;;4997344;28;20206;-82
2023/12/28 09:11:32;;;;;;;3.08;1.20;;;9.90;99.90;;;;;;4992237;28;20230;-82
2023/12/28 09:13:59;;;;;;;1.25;1.05;;;9.90;99.90;;;;;;4996153;28;20221;-83
2023/12/28 09:16:26;;;;;;;1.65;1.30;;;10.00;99.90;;;;;;4997952;28;20237;-83
2023/12/28 09:18:53;;;;;;;1.23;1.13;;;10.00;99.90;;;;;;4995382;28;20199;-80
2023/12/28 09:21:21;;;;;;;5.00;1.23;;;10.00;99.90;;;;;;4996077;28;20223;-80
2023/12/28 09:23:48;;;;;;;2.35;1.55;;;10.00;99.90;;;;;;4989703;28;20206;-79
2023/12/28 09:26:15;;;;;;;2.08;1.45;;;10.10;99.90;;;;;;4996768;28;20584;-80
2023/12/28 09:28:41;;;;;;;2.40;1.30;;;10.10;99.90;;;;;;4990351;28;20211;-78
2023/12/28 09:31:08;;;;;;;2.15;1.15;;;10.10;99.90;;;;;;4995486;28;20227;-79
2023/12/28 09:33:35;;;;;;;1.65;1.00;;;10.20;99.90;;;;;;4996215;28;20204;-81
2023/12/28 09:36:04;;;;;;;2.17;1.60;;;10.20;99.90;;;;;;4996738;28;20306;-82
2023/12/28 09:38:32;;;;;;;1.38;1.27;;;10.20;99.90;;;;;;4998666;28;20220;-81
2023/12/28 09:41:05;;;;;;;1.70;1.20;;;10.30;99.90;;;;;;4999398;28;20234;-82
2023/12/28 09:43:36;;;;;;;1.55;0.90;;;10.40;99.90;;;;;;5001313;28;20215;-81
2023/12/28 09:46:09;;;;;;;3.53;1.00;;;10.40;99.90;;;;;;4999347;28;20203;-82
2023/12/28 09:48:38;;;;;;;1.30;0.93;;;10.40;99.90;;;;;;4996533;28;20214;-82
2023/12/28 09:51:05;;;;;;;2.00;1.42;;;10.50;99.90;;;;;;4997533;28;20313;-82
2023/12/28 09:53:33;;;;;;;1.67;1.50;;;10.40;99.90;;;;;;4999188;28;20294;-84
2023/12/28 09:56:02;;;;;;;3.53;1.27;;;10.50;99.90;;;;;;5001167;28;20310;-84
2023/12/28 09:58:30;;;;;;;1.85;1.23;;;10.50;99.90;;;;;;5001470;28;20203;-83
2023/12/28 10:00:58;;;;;;;1.40;1.30;;;10.50;99.90;;;;;;4997870;28;20235;-80
2023/12/28 10:03:24;;;;;;;2.33;1.40;;;10.40;99.90;;;;;;4994716;28;20709;-80
2023/12/28 10:05:51;;;;;;;1.50;1.30;;;10.50;99.90;;;;;;4996552;28;20254;-79
2023/12/28 10:08:18;;;;;;;1.98;1.30;;;10.50;99.90;;;;;;4995078;28;20206;-79
2023/12/28 10:10:50;;;;;;;1.48;1.05;;;10.50;99.90;;;;;;4996191;28;20223;-79
2023/12/28 10:13:18;;;;;;;2.05;1.30;;;10.50;99.90;;;;;;4997293;28;20298;-80
2023/12/28 10:15:45;;;;;;;1.30;1.08;;;10.50;99.90;;;;;;5001674;28;20254;-80
2023/12/28 10:18:12;;;;;;;1.77;1.40;;;10.60;99.90;;;;;;4999979;28;20227;-80
2023/12/28 10:20:39;;;;;;;1.55;1.20;;;10.50;99.90;;;;;;5001016;28;20703;-80
2023/12/28 10:23:06;;;;;;;1.10;1.00;;;10.50;99.90;;;;;;4999370;28;20637;-81
2023/12/28 10:25:34;;;;;;;1.48;1.38;;;10.40;99.90;;;;;;5000933;28;20211;-80
2023/12/28 10:28:05;;;;;;;1.50;1.30;;;10.50;99.90;;;;;;5004311;28;20203;-80
2023/12/28 10:30:32;;;;;;;2.30;1.40;;;10.40;99.90;;;;;;4995841;28;20218;-80
2023/12/28 10:32:59;;;;;;;1.98;1.00;;;10.40;99.90;;;;;;4993983;28;20281;-81
2023/12/28 10:35:26;;;;;;;5.13;1.08;;;10.50;99.90;;;;;;4995691;28;20275;-79
2023/12/28 10:37:54;;;;;;;1.35;1.10;;;10.40;99.90;;;;;;4994043;28;20302;-78
2023/12/28 10:40:22;;;;;;;2.58;1.23;;;10.50;99.90;;;;;;4994283;28;20266;-77
2023/12/28 10:42:55;;;;;;;1.63;1.50;;;10.50;99.90;;;;;;4988330;28;20611;-78
2023/12/28 10:45:26;;;;;;;1.30;1.20;;;10.50;99.90;;;;;;4995986;28;20214;-81
2023/12/28 10:48:02;;;;;;;3.30;1.92;;;10.60;99.90;;;;;;4990922;28;20298;-77
2023/12/28 10:50:31;;;;;;;1.52;1.20;;;10.60;99.90;;;;;;4995168;28;20222;-77
2023/12/28 10:53:21;;;;;;;2.15;1.30;;;10.70;99.90;;;;;;4995807;28;20314;-77
2023/12/28 10:55:52;;;;;;;1.30;1.20;;;10.70;99.90;;;;;;4994554;28;20242;-78
2023/12/28 10:58:28;;;;;;;3.33;1.55;;;10.80;99.90;;;;;;4994570;28;20217;-78
2023/12/28 11:01:03;;;;;;;2.95;1.50;;;10.80;99.90;;;;;;4995538;28;20238;-78
2023/12/28 11:03:35;;;;;;;2.33;1.40;;;10.80;99.90;;;;;;4994475;28;20229;-78
2023/12/28 11:06:05;;;;;;;1.45;1.33;;;10.90;99.90;;;;;;4994833;28;20668;-77
2023/12/28 11:08:35;;;;;;;1.42;1.15;;;10.90;99.90;;;;;;4994370;28;20250;-78
2023/12/28 11:11:03;;;;;;;1.58;1.20;;;10.80;99.90;;;;;;4994903;28;20223;-78
2023/12/28 11:13:32;;;;;;;1.52;1.20;;;10.90;99.90;;;;;;4995088;28;20653;-79
2023/12/28 11:16:02;;;;;;;1.63;1.10;;;10.90;99.90;;;;;;4990761;28;20604;-78
2023/12/28 11:18:29;;;;;;;1.10;0.80;;;10.90;99.90;;;;;;4991810;28;20208;-80
2023/12/28 11:20:57;;;;;;;1.33;1.23;;;10.90;99.90;;;;;;4982574;28;20235;-77
2023/12/28 11:23:25;;;;;;;2.20;1.10;;;10.90;99.90;;;;;;4975417;28;20295;-77
2023/12/28 11:25:52;;;;;;;1.50;1.20;;;11.00;99.90;;;;;;4979089;28;20204;-77
2023/12/28 11:28:20;;;;;;;1.80;1.33;;;11.00;99.90;;;;;;4986629;28;20613;-77
2023/12/28 11:30:48;;;;;;;1.10;1.00;;;11.10;99.90;;;;;;4983639;28;20306;-77
2023/12/28 11:33:17;;;;;;;1.55;1.20;;;11.00;99.90;;;;;;4983151;28;20212;-78
2023/12/28 11:35:43;;;;;;;1.73;1.60;;;11.00;99.90;;;;;;4977329;28;20247;-77
2023/12/28 11:38:13;;;;;;;3.95;1.70;;;11.00;99.90;;;;;;4980335;28;20204;-77
2023/12/28 11:40:44;;;;;;;1.88;1.35;;;10.90;99.90;;;;;;4970113;28;20233;-78
2023/12/28 11:43:19;;;;;;;1.65;1.17;;;10.80;99.90;;;;;;4979061;28;20208;-78
2023/12/28 11:45:50;;;;;;;1.30;1.20;;;10.80;99.90;;;;;;4966610;28;20219;-79
2023/12/28 11:48:26;;;;;;;2.10;1.50;;;10.80;99.90;;;;;;4965983;28;20215;-78
2023/12/28 11:50:56;;;;;;;1.20;1.10;;;10.80;99.90;;;;;;4962555;28;20704;-78
2023/12/28 11:53:24;;;;;;;1.38;1.27;;;10.80;99.90;;;;;;4975884;28;20259;-77
2023/12/28 11:55:51;;;;;;;1.25;1.15;;;10.80;99.90;;;;;;4982311;28;20212;-77
2023/12/28 11:58:18;;;;;;;4.50;1.15;;;10.80;99.90;;;;;;4967654;28;20209;-78
2023/12/28 12:00:45;;;;;;;2.55;1.23;;;10.80;99.90;;;;;;4973124;28;20227;-78
2023/12/28 12:03:12;;;;;;;1.10;1.00;;;10.80;99.90;;;;;;4968471;28;20599;-78
2023/12/28 12:05:40;;;;;;;1.40;1.08;;;10.70;99.90;;;;;;4964872;28;20235;-78
2023/12/28 12:08:10;;;;;;;1.00;0.90;;;10.80;99.90;;;;;;4969422;28;20653;-78
2023/12/28 12:10:36;;;;;;;1.48;1.10;;;10.80;99.90;;;;;;4964668;28;20231;-78
2023/12/28 12:13:03;;;;;;;1.10;1.00;;;10.80;99.90;;;;;;4966534;28;20211;-78
2023/12/28 12:15:31;;;;;;;2.53;1.60;;;10.90;99.90;;;;;;4966914;28;20209;-78
2023/12/28 12:17:58;;;;;;;2.17;1.10;;;10.90;99.90;;;;;;4970086;28;20225;-78
2023/12/28 12:20:25;;;;;;;1.20;1.00;;;10.90;99.90;;;;;;4982159;28;20672;-78
2023/12/28 12:22:53;;;;;;;2.45;1.20;;;10.80;99.90;;;;;;4966440;28;20583;-78
2023/12/28 12:25:20;;;;;;;1.38;1.00;;;10.80;99.90;;;;;;4974009;28;20230;-78
2023/12/28 12:27:47;;;;;;;1.33;1.23;;;10.80;99.90;;;;;;4965547;28;20208;-78
2023/12/28 12:30:14;;;;;;;1.65;1.20;;;10.80;99.90;;;;;;4973307;28;20211;-77
2023/12/28 12:32:42;;;;;;;1.70;1.33;;;10.80;99.90;;;;;;4990743;28;20207;-77
2023/12/28 12:35:10;;;;;;;1.15;1.05;;;10.80;99.90;;;;;;4984568;28;20207;-78
2023/12/28 12:37:37;;;;;;;1.40;1.30;;;10.80;99.90;;;;;;4984854;28;20234;-78
2023/12/28 12:40:07;;;;;;;1.52;1.20;;;10.80;99.90;;;;;;4986104;28;20214;-77
2023/12/28 12:42:34;;;;;;;1.48;1.38;;;10.80;99.90;;;;;;4986491;28;20611;-78
2023/12/28 12:45:00;;;;;;;1.20;0.98;;;10.90;99.90;;;;;;4975983;28;20208;-78
2023/12/28 12:47:33;;;;;;;1.55;1.27;;;10.90;99.90;;;;;;4989810;28;20206;-78
2023/12/28 12:50:00;;;;;;;1.50;1.30;;;10.90;99.90;;;;;;4979780;28;20212;-77
2023/12/28 12:52:28;;;;;;;2.45;1.30;;;10.90;99.90;;;;;;4993706;28;20231;-78
2023/12/28 12:54:56;;;;;;;1.40;1.20;;;10.90;99.90;;;;;;4989139;28;20205;-77
2023/12/28 12:57:26;;;;;;;1.40;1.25;;;10.90;99.90;;;;;;5003567;28;20238;-77
2023/12/28 12:59:53;;;;;;;1.73;1.52;;;10.90;99.90;;;;;;5001647;28;20212;-77
2023/12/28 13:02:20;;;;;;;1.80;1.33;;;10.90;99.90;;;;;;5001763;28;20279;-78
2023/12/28 13:04:46;;;;;;;1.67;1.30;;;10.80;99.90;;;;;;4999145;28;20218;-77
2023/12/28 13:07:13;;;;;;;2.00;1.40;;;10.80;99.90;;;;;;5013622;28;20278;-77
2023/12/28 13:09:40;;;;;;;1.73;1.63;;;10.80;99.90;;;;;;5007426;28;20214;-77
2023/12/28 13:12:07;;;;;;;3.17;1.45;;;10.80;99.90;;;;;;5013866;28;20228;-77
2023/12/28 13:14:36;;;;;;;1.60;1.25;;;10.70;99.90;;;;;;5006951;28;20215;-77
2023/12/28 13:17:02;;;;;;;1.45;1.35;;;10.70;99.90;;;;;;5002788;28;20622;-77
2023/12/28 13:19:29;;;;;;;2.13;1.35;;;10.70;99.90;;;;;;4989256;28;20223;-77
2023/12/28 13:21:56;;;;;;;1.45;1.35;;;10.60;99.90;;;;;;5007692;28;20223;-77
2023/12/28 13:24:23;;;;;;;1.10;1.00;;;10.70;99.90;;;;;;5006785;28;20213;-77
2023/12/28 13:26:50;;;;;;;1.13;1.02;;;10.70;99.90;;;;;;5009959;28;20271;-78
2023/12/28 13:29:17;;;;;;;1.35;1.20;;;10.70;99.90;;;;;;4988347;28;20208;-78
2023/12/28 13:31:49;;;;;;;1.38;1.00;;;10.60;99.90;;;;;;4996441;28;20247;-78
2023/12/28 13:34:18;;;;;;;1.40;1.30;;;10.70;99.90;;;;;;4995402;28;20578;-78
2023/12/28 13:36:45;;;;;;;1.33;1.10;;;10.70;99.90;;;;;;4988285;28;20247;-78
2023/12/28 13:39:14;;;;;;;1.70;1.40;;;10.70;99.90;;;;;;4990032;28;20204;-78
2023/12/28 13:41:41;;;;;;;1.25;1.05;;;10.70;99.90;;;;;;4992293;28;20231;-78
2023/12/28 13:44:11;;;;;;;2.42;1.30;;;10.70;99.90;;;;;;4988304;28;20226;-78
2023/12/28 13:46:39;;;;;;;1.10;0.90;;;10.80;99.90;;;;;;4980985;28;20200;-78
2023/12/28 13:49:07;;;;;;;1.80;1.38;;;10.80;99.90;;;;;;4981864;28;20579;-78
2023/12/28 13:51:34;;;;;;;2.22;1.60;;;10.70;99.90;;;;;;4994049;28;20226;-78
2023/12/28 13:54:01;;;;;;;1.30;1.20;;;10.70;99.90;;;;;;4984685;28;20207;-78
2023/12/28 13:56:28;;;;;;;1.30;1.20;;;10.70;99.90;;;;;;4984519;28;20274;-77
2023/12/28 13:58:55;;;;;;;3.70;1.13;;;10.70;99.90;;;;;;4994830;28;20310;-78
2023/12/28 14:01:21;;;;;;;2.47;2.03;;;10.60;99.90;;;;;;4991188;28;20242;-78
2023/12/28 14:03:51;;;;;;;1.13;1.02;;;10.70;99.90;;;;;;4995169;28;20203;-78
2023/12/28 14:06:20;;;;;;;1.40;1.30;;;10.70;99.90;;;;;;4997476;28;20624;-78
2023/12/28 14:08:46;;;;;;;1.20;1.10;;;10.70;99.90;;;;;;4985067;28;20219;-78
2023/12/28 14:11:13;;;;;;;1.85;1.58;;;10.70;99.90;;;;;;4992667;28;20228;-78
2023/12/28 14:13:40;;;;;;;2.13;1.35;;;10.70;99.90;;;;;;4996119;28;20210;-77
2023/12/28 14:16:08;;;;;;;1.20;1.10;;;10.60;99.90;;;;;;5002318;28;20653;-79
2023/12/28 14:18:35;;;;;;;4.22;1.55;;;10.60;99.90;;;;;;4987076;28;20235;-79
2023/12/28 14:21:03;;;;;;;1.55;1.20;;;10.60;99.90;;;;;;4997592;28;20228;-79
2023/12/28 14:23:32;;;;;;;1.58;1.20;;;10.50;99.90;;;;;;4997835;28;20302;-79
2023/12/28 14:25:59;;;;;;;3.25;1.90;;;10.50;99.90;;;;;;4997595;28;20212;-79
2023/12/28 14:28:26;;;;;;;1.38;1.15;;;10.40;99.90;;;;;;4992289;28;20325;-79
2023/12/28 14:30:53;;;;;;;1.20;1.00;;;10.40;99.90;;;;;;4991617;28;20285;-79
2023/12/28 14:33:20;;;;;;;3.25;1.30;;;10.30;99.90;;;;;;4997116;28;20211;-79
2023/12/28 14:35:48;;;;;;;1.70;1.50;;;10.30;99.90;;;;;;4997443;28;20218;-79
2023/12/28 14:38:15;;;;;;;1.50;1.40;;;10.20;99.90;;;;;;4988147;28;20286;-79
2023/12/28 14:40:43;;;;;;;1.20;1.10;;;10.20;99.90;;;;;;4997202;28;20235;-79
2023/12/28 14:43:10;;;;;;;1.48;1.30;;;10.20;99.90;;;;;;5000054;28;20211;-78
2023/12/28 14:45:37;;;;;;;1.25;1.15;;;10.10;99.90;;;;;;5000086;28;20207;-78
2023/12/28 14:48:04;;;;;;;2.83;1.30;;;10.10;99.90;;;;;;4993741;28;20212;-78
2023/12/28 14:50:31;;;;;;;1.52;1.42;;;10.10;99.90;;;;;;4989024;28;20298;-78
2023/12/28 14:53:00;;;;;;;1.80;1.70;;;10.10;99.90;;;;;;4992063;28;20215;-79
2023/12/28 14:55:30;;;;;;;1.23;1.13;;;10.10;99.90;;;;;;4997795;28;20214;-78
2023/12/28 14:58:07;;;;;;;1.75;1.40;;;10.00;99.90;;;;;;4989910;28;20233;-78
2023/12/28 15:00:34;;;;;;;1.33;1.00;;;10.00;99.90;;;;;;4994314;28;20377;-78
2023/12/28 15:03:01;;;;;;;1.88;1.20;;;10.00;99.90;;;;;;4992275;28;20287;-78
2023/12/28 15:05:32;;;;;;;2.20;1.58;;;10.00;99.90;;;;;;4981648;28;20215;-79
2023/12/28 15:07:59;;;;;;;1.80;1.00;;;10.00;99.90;;;;;;4982397;28;20261;-77
2023/12/28 15:10:26;;;;;;;3.10;1.40;;;10.00;99.90;;;;;;4986590;28;20223;-78
2023/12/28 15:12:53;;;;;;;1.30;1.20;;;9.90;99.90;;;;;;4988402;28;20207;-78
2023/12/28 15:15:23;;;;;;;2.60;1.40;;;9.90;99.90;;;;;;4990410;28;20246;-78
2023/12/28 15:17:51;;;;;;;3.45;1.27;;;9.90;99.90;;;;;;4985236;28;20283;-78
2023/12/28 15:20:18;;;;;;;5.53;1.20;;;9.90;99.90;;;;;;4990000;28;20234;-77
2023/12/28 15:22:46;;;;;;;4.40;2.00;;;9.80;99.90;;;;;;4994205;28;20217;-78
2023/12/28 15:25:13;;;;;;;1.40;1.30;;;9.80;99.90;;;;;;4989235;28;20215;-78
2023/12/28 15:27:40;;;;;;;2.72;1.45;;;9.80;99.90;;;;;;4989024;28;20211;-78
2023/12/28 15:30:08;;;;;;;3.88;1.20;;;9.70;99.90;;;;;;4985331;28;20222;-78
2023/12/28 15:32:38;;;;;;;1.73;1.40;;;9.70;99.90;;;;;;4979173;28;20251;-78
2023/12/28 15:35:06;;;;;;;1.75;1.55;;;9.70;99.90;;;;;;4973666;28;20208;-78
2023/12/28 15:37:33;;;;;;;2.00;1.67;;;9.70;99.90;;;;;;4974652;28;20257;-78
2023/12/28 15:40:00;;;;;;;1.85;1.75;;;9.60;99.90;;;;;;4973886;28;20211;-77
2023/12/28 15:42:27;;;;;;;3.10;1.75;;;9.60;99.90;;;;;;4975177;28;20234;-78
2023/12/28 15:44:54;;;;;;;1.38;1.10;;;9.60;99.90;;;;;;4975873;28;20574;-78
2023/12/28 15:47:20;;;;;;;6.50;1.67;;;9.70;99.90;;;;;;4976457;28;20222;-78
2023/12/28 15:49:48;;;;;;;1.45;1.35;;;9.60;99.90;;;;;;4976170;28;20231;-78
2023/12/28 15:52:15;;;;;;;1.65;1.52;;;9.60;99.90;;;;;;4974915;28;20229;-77
2023/12/28 15:54:42;;;;;;;1.77;1.50;;;9.60;99.90;;;;;;4975087;28;20222;-78
2023/12/28 15:57:09;;;;;;;1.50;1.23;;;9.60;99.90;;;;;;4975017;28;20631;-77
2023/12/28 15:59:36;;;;;;;2.30;1.15;;;9.60;99.90;;;;;;4975241;28;20610;-78
2023/12/28 16:02:02;;;;;;;1.42;1.33;;;9.60;99.90;;;;;;4973681;28;20239;-78
2023/12/28 16:04:29;;;;;;;1.73;1.55;;;9.50;99.90;;;;;;4974071;28;20210;-78
2023/12/28 16:06:57;;;;;;;2.22;1.60;;;9.50;99.90;;;;;;4971574;28;20207;-78
2023/12/28 16:09:24;;;;;;;1.73;1.50;;;9.50;99.90;;;;;;4973267;28;20216;-77
2023/12/28 16:11:51;;;;;;;1.30;1.15;;;9.50;99.90;;;;;;4973540;28;20235;-77
2023/12/28 16:14:19;;;;;;;1.75;1.40;;;9.40;99.90;;;;;;4974259;28;20208;-78
2023/12/28 16:16:47;;;;;;;3.28;1.50;;;9.40;99.90;;;;;;4974557;28;20581;-78
2023/12/28 16:19:14;;;;;;;3.35;2.05;;;9.40;99.90;;;;;;4970212;28;20223;-78
2023/12/28 16:21:41;;;;;;;1.50;1.40;;;9.40;99.90;;;;;;4972942;28;20231;-78
2023/12/28 16:24:10;;;;;;;1.55;1.45;;;9.30;99.90;;;;;;4972697;28;20245;-78
2023/12/28 16:26:36;;;;;;;1.45;1.30;;;9.30;99.90;;;;;;4972488;28;20687;-78
2023/12/28 16:29:03;;;;;;;2.50;2.00;;;9.30;99.90;;;;;;4971855;28;20222;-77
2023/12/28 16:31:30;;;;;;;2.05;1.60;;;9.20;99.90;;;;;;4975847;28;20284;-78
2023/12/28 16:33:57;;;;;;;1.40;1.25;;;9.20;99.90;;;;;;4987901;28;20215;-78
2023/12/28 16:36:23;;;;;;;1.65;1.30;;;9.20;99.90;;;;;;4991939;28;20589;-78
2023/12/28 16:38:50;;;;;;;1.58;1.27;;;9.20;99.90;;;;;;4991775;28;20227;-78
2023/12/28 16:41:19;;;;;;;2.53;1.80;;;9.20;99.90;;;;;;4988740;28;20245;-78
2023/12/28 16:43:46;;;;;;;2.13;1.50;;;9.20;99.90;;;;;;4976684;28;20212;-78
2023/12/28 16:46:13;;;;;;;1.27;1.17;;;9.20;99.90;;;;;;4991024;28;20245;-78
2023/12/28 16:48:40;;;;;;;1.80;1.45;;;9.20;99.90;;;;;;4990716;28;20214;-78
2023/12/28 16:51:07;;;;;;;2.40;1.50;;;9.20;99.90;;;;;;4991048;28;20253;-77
2023/12/28 16:53:34;;;;;;;1.50;1.30;;;9.20;99.90;;;;;;4992430;28;20301;-78
2023/12/28 16:56:01;;;;;;;1.35;1.25;;;9.20;99.90;;;;;;4991780;28;20265;-78
2023/12/28 16:58:29;;;;;;;1.45;1.35;;;9.20;99.90;;;;;;4992380;28;20226;-78
2023/12/28 17:00:56;;;;;;;1.73;1.50;;;9.20;99.90;;;;;;4992742;28;20244;-78
2023/12/28 17:03:22;;;;;;;5.22;1.40;;;9.20;99.90;;;;;;4989028;28;20215;-78
2023/12/28 17:05:50;;;;;;;2.30;1.67;;;9.20;99.90;;;;;;4985268;28;20219;-79
2023/12/28 17:08:16;;;;;;;1.55;1.27;;;9.20;99.90;;;;;;4987703;28;20599;-78
2023/12/28 17:10:44;;;;;;;1.70;1.60;;;9.20;99.90;;;;;;4990075;28;20237;-79
2023/12/28 17:13:12;;;;;;;2.17;1.48;;;9.20;99.90;;;;;;4991251;28;20218;-78